createdAt,value
2023-03-30T00:02:10.728Z,7.72
2023-03-30T00:07:31.550Z,6.82
2023-03-30T00:12:52.917Z,6.75
2023-03-30T00:18:14.519Z,6.28
2023-03-30T00:23:35.572Z,5.55
2023-03-30T00:28:56.132Z,5.38
2023-03-30T00:34:16.993Z,6.22
2023-03-30T00:39:37.565Z,5.13
2023-03-30T00:45:21.566Z,4.72
2023-03-30T00:50:50.846Z,4.55
2023-03-30T00:56:14.904Z,4.93
2023-03-30T01:01:39.583Z,4.57
2023-03-30T01:07:01.178Z,3.78
2023-03-30T01:12:21.889Z,4.35
2023-03-30T01:18:24.186Z,5.22
2023-03-30T01:24:07.822Z,4.00
2023-03-30T01:30:08.491Z,4.38
2023-03-30T01:35:32.312Z,4.32
2023-03-30T01:41:09.846Z,3.65
2023-03-30T01:46:40.400Z,4.22
2023-03-30T01:57:36.049Z,4.38
2023-03-30T02:03:05.668Z,4.18
2023-03-30T02:08:31.259Z,5.03
2023-03-30T02:13:55.242Z,4.18
2023-03-30T02:19:17.113Z,4.57
2023-03-30T02:24:38.176Z,4.60
2023-03-30T02:29:59.034Z,3.85
2023-03-30T02:35:38.969Z,5.07
2023-03-30T02:41:26.497Z,4.75
2023-03-30T02:46:59.952Z,3.85
2023-03-30T02:52:36.975Z,4.00
2023-03-30T02:58:23.766Z,3.13
2023-03-30T03:03:59.403Z,4.45
2023-03-30T03:09:26.083Z,3.65
2023-03-30T03:14:46.979Z,3.28
2023-03-30T03:20:10.690Z,3.15
2023-03-30T03:25:31.689Z,4.28
2023-03-30T03:30:58.445Z,3.60
2023-03-30T03:36:19.624Z,2.70
2023-03-30T03:41:44.862Z,3.53
2023-03-30T03:47:05.493Z,4.43
2023-03-30T03:52:26.686Z,3.22
2023-03-30T03:57:47.316Z,3.17
2023-03-30T04:03:09.220Z,3.95
2023-03-30T04:08:30.523Z,4.45
2023-03-30T04:13:59.470Z,4.22
2023-03-30T04:19:42.857Z,3.03
2023-03-30T04:25:25.968Z,3.70
2023-03-30T04:31:22.896Z,4.05
2023-03-30T04:37:03.946Z,3.90
2023-03-30T04:42:30.801Z,3.50
2023-03-30T04:48:13.551Z,4.65
2023-03-30T04:54:12.492Z,4.22
2023-03-30T05:00:12.335Z,4.78
2023-03-30T05:05:56.115Z,4.25
2023-03-30T05:11:35.810Z,5.33
2023-03-30T05:17:19.721Z,5.38
2023-03-30T05:23:07.988Z,5.43
2023-03-30T05:28:48.867Z,5.10
2023-03-30T05:34:18.969Z,5.13
2023-03-30T05:39:56.103Z,4.00
2023-03-30T05:45:35.976Z,4.10
2023-03-30T05:51:15.983Z,3.17
2023-03-30T05:56:54.182Z,3.33
2023-03-30T06:02:35.587Z,3.83
2023-03-30T06:08:01.046Z,4.15
2023-03-30T06:13:22.412Z,3.38
2023-03-30T06:18:46.959Z,3.20
2023-03-30T06:24:09.327Z,3.47
2023-03-30T06:29:32.901Z,3.60
2023-03-30T06:34:54.111Z,3.33
2023-03-30T06:40:19.171Z,3.60
2023-03-30T06:45:44.310Z,2.83
2023-03-30T06:51:06.751Z,3.70
2023-03-30T06:56:28.068Z,2.92
2023-03-30T07:02:18.047Z,3.10
2023-03-30T07:07:59.682Z,3.90
2023-03-30T07:13:21.318Z,3.50
2023-03-30T07:18:43.584Z,3.22
2023-03-30T07:24:04.476Z,3.35
2023-03-30T07:29:29.648Z,3.22
2023-03-30T07:34:51.330Z,3.50
2023-03-30T07:40:13.111Z,3.13
2023-03-30T07:45:36.098Z,3.00
2023-03-30T07:51:06.893Z,3.20
2023-03-30T07:56:33.552Z,3.22
2023-03-30T08:01:56.326Z,2.92
2023-03-30T08:07:39.833Z,3.00
2023-03-30T08:13:12.612Z,3.05
2023-03-30T08:18:33.821Z,3.00
2023-03-30T08:23:57.978Z,2.42
2023-03-30T08:29:19.405Z,3.45
2023-03-30T08:34:40.824Z,2.20
2023-03-30T08:40:01.979Z,2.80
2023-03-30T08:45:23.113Z,2.58
2023-03-30T08:51:07.175Z,3.47
2023-03-30T08:57:03.460Z,3.58
2023-03-30T09:02:31.144Z,2.95
2023-03-30T09:08:06.425Z,3.05
2023-03-30T09:13:36.456Z,2.47
2023-03-30T09:19:01.688Z,3.30
2023-03-30T09:24:26.349Z,3.15
2023-03-30T09:29:49.246Z,2.97
2023-03-30T09:35:13.369Z,2.72
2023-03-30T09:40:47.521Z,3.03
2023-03-30T09:46:09.447Z,2.58
2023-03-30T09:51:31.390Z,2.50
2023-03-30T09:56:54.573Z,3.78
2023-03-30T10:02:18.139Z,3.33
2023-03-30T10:07:41.999Z,2.90
2023-03-30T10:13:12.257Z,3.28
2023-03-30T10:18:45.062Z,3.15
2023-03-30T10:24:22.307Z,3.40
2023-03-30T10:29:50.312Z,3.45
2023-03-30T10:35:11.443Z,2.63
2023-03-30T10:40:39.202Z,3.58
2023-03-30T10:46:27.851Z,4.65
2023-03-30T10:52:01.150Z,3.17
2023-03-30T10:57:32.531Z,3.00
2023-03-30T11:03:12.845Z,4.75
2023-03-30T11:08:43.131Z,3.42
2023-03-30T11:14:12.646Z,3.90
2023-03-30T11:19:42.528Z,3.28
2023-03-30T11:25:16.691Z,4.07
2023-03-30T11:30:39.258Z,3.13
2023-03-30T11:36:23.653Z,2.60
2023-03-30T11:42:28.769Z,3.40
2023-03-30T11:48:27.121Z,3.97
2023-03-30T11:54:21.959Z,3.05
2023-03-30T11:59:56.397Z,2.42
2023-03-30T12:05:27.995Z,2.70
2023-03-30T12:10:54.654Z,2.20
2023-03-30T12:16:29.148Z,1.92
2023-03-30T12:22:04.608Z,1.90
2023-03-30T12:27:29.119Z,2.00
2023-03-30T12:33:11.546Z,1.50
2023-03-30T12:38:43.613Z,2.00
2023-03-30T12:44:23.178Z,1.80
2023-03-30T12:50:06.811Z,1.47
2023-03-30T12:55:27.509Z,2.53
2023-03-30T13:01:01.206Z,1.50
2023-03-30T13:06:24.244Z,2.03
2023-03-30T13:11:56.981Z,2.00
2023-03-30T13:17:22.229Z,1.88
2023-03-30T13:22:59.491Z,1.60
2023-03-30T13:28:35.726Z,2.30
2023-03-30T13:34:23.385Z,1.52
2023-03-30T13:39:55.772Z,2.05
2023-03-30T13:45:43.224Z,2.85
2023-03-30T13:51:04.745Z,1.67
2023-03-30T13:56:27.408Z,1.63
2023-03-30T14:01:57.361Z,1.70
2023-03-30T14:12:41.758Z,2.30
2023-03-30T14:18:05.287Z,2.63
2023-03-30T14:23:38.109Z,2.80
2023-03-30T14:29:03.371Z,2.17
2023-03-30T14:34:28.187Z,2.30
2023-03-30T14:39:55.491Z,1.73
2023-03-30T14:45:18.928Z,2.25
2023-03-30T14:50:40.014Z,1.73
2023-03-30T14:56:01.487Z,1.85
2023-03-30T15:01:31.047Z,1.60
2023-03-30T15:06:53.520Z,1.55
2023-03-30T15:12:29.808Z,2.20
2023-03-30T15:17:51.491Z,1.83
2023-03-30T15:23:13.942Z,1.70
2023-03-30T15:28:44.320Z,1.98
2023-03-30T15:34:14.300Z,1.60
2023-03-30T15:39:36.374Z,1.73
2023-03-30T15:45:09.792Z,1.85
2023-03-30T15:50:30.614Z,1.88
2023-03-30T15:55:52.192Z,1.55
2023-03-30T16:01:16.827Z,2.13
2023-03-30T16:06:37.744Z,2.67
2023-03-30T16:11:58.514Z,1.95
2023-03-30T16:17:19.638Z,2.30
2023-03-30T16:22:40.633Z,2.13
2023-03-30T16:28:01.629Z,1.92
2023-03-30T16:33:22.272Z,1.75
2023-03-30T16:38:43.494Z,2.10
2023-03-30T16:44:04.106Z,2.13
2023-03-30T16:49:26.232Z,2.30
2023-03-30T16:54:47.138Z,2.40
2023-03-30T17:00:15.355Z,2.58
2023-03-30T17:05:36.885Z,2.80
2023-03-30T17:11:01.445Z,2.25
2023-03-30T17:16:25.175Z,2.10
2023-03-30T17:21:46.297Z,2.80
2023-03-30T17:27:07.013Z,1.77
2023-03-30T17:32:27.814Z,1.98
2023-03-30T17:37:49.999Z,2.10
2023-03-30T17:43:11.276Z,2.03
2023-03-30T17:48:32.265Z,1.90
2023-03-30T17:53:53.335Z,2.03
2023-03-30T17:59:14.106Z,1.73
2023-03-30T18:04:35.235Z,1.95
2023-03-30T18:09:56.245Z,1.38
2023-03-30T18:15:19.847Z,0.60
2023-03-30T18:20:43.965Z,0.50
2023-03-30T18:26:10.285Z,0.35
2023-03-30T18:31:32.316Z,0.30
2023-03-30T18:36:53.207Z,0.30
2023-03-30T18:42:13.849Z,0.40
2023-03-30T18:47:34.559Z,0.20
2023-03-30T18:52:55.355Z,0.40
2023-03-30T18:58:21.187Z,0.30
2023-03-30T19:03:42.850Z,1.20
2023-03-30T19:09:03.582Z,0.88
2023-03-30T19:14:24.094Z,0.70
2023-03-30T19:19:44.867Z,0.55
2023-03-30T19:25:06.405Z,1.00
2023-03-30T19:30:27.518Z,1.30
2023-03-30T19:35:48.660Z,1.10
2023-03-30T19:41:09.542Z,1.38
2023-03-30T19:46:30.693Z,1.52
2023-03-30T19:51:51.480Z,1.38
2023-03-30T19:57:12.731Z,1.50
2023-03-30T20:02:33.675Z,1.10
2023-03-30T20:07:54.381Z,0.85
2023-03-30T20:13:17.025Z,0.60
2023-03-30T20:18:40.293Z,1.02
2023-03-30T20:24:01.010Z,1.10
2023-03-30T20:29:21.619Z,1.10
2023-03-30T20:34:42.581Z,0.82
2023-03-30T20:40:09.980Z,0.95
2023-03-30T20:45:31.780Z,1.17
2023-03-30T20:50:56.295Z,0.95
2023-03-30T20:56:17.806Z,0.88
2023-03-30T21:01:41.321Z,1.23
2023-03-30T21:07:02.364Z,0.85
2023-03-30T21:12:23.125Z,1.20
2023-03-30T21:17:43.889Z,1.02
2023-03-30T21:23:04.581Z,1.10
2023-03-30T21:28:29.630Z,0.90
2023-03-30T21:33:50.683Z,0.80
2023-03-30T21:39:11.633Z,1.02
2023-03-30T21:44:36.387Z,0.80
2023-03-30T21:49:57.396Z,1.33
2023-03-30T21:55:18.164Z,1.60
2023-03-30T22:00:38.823Z,1.33
2023-03-30T22:06:01.883Z,1.13
2023-03-30T22:11:25.451Z,1.42
2023-03-30T22:16:46.922Z,1.67
2023-03-30T22:22:07.992Z,1.50
2023-03-30T22:27:28.682Z,1.25
2023-03-30T22:32:49.480Z,1.75
2023-03-30T22:38:11.362Z,1.00
2023-03-30T22:43:32.801Z,1.08
2023-03-30T22:48:55.703Z,0.93
2023-03-30T22:54:18.258Z,1.15
2023-03-30T22:59:39.098Z,1.50
2023-03-30T23:05:01.498Z,1.02
2023-03-30T23:10:25.456Z,1.00
2023-03-30T23:15:48.570Z,1.20
2023-03-30T23:21:11.247Z,1.13
2023-03-30T23:26:32.416Z,1.00
2023-03-30T23:31:53.366Z,1.10
2023-03-30T23:37:14.081Z,1.33
2023-03-30T23:42:34.829Z,1.25
2023-03-30T23:47:55.853Z,1.08
2023-03-30T23:53:16.559Z,1.27
2023-03-30T23:58:37.221Z,1.35
